Time;durP1;ratioP1;P1;durP2;ratioP2;P2;SDS_P1;SDS_P2;PMS_P1;PMS_P2;Temp;Humidity;BMP_temperature;BMP_pressure;BME280_temperature;BME280_humidity;BME280_pressure;Samples;Min_cycle;Max_cycle;Signal;HPM_P1;HPM_P2
2022/03/30 00:00:06;;;;;;;32.78;8.27;;;;;;;16.78;33.19;94257.31;5033865;28;20033;-66
2022/03/30 00:02:31;;;;;;;28.20;8.15;;;;;;;16.75;33.54;94261.50;5033985;28;20473;-66
2022/03/30 00:04:57;;;;;;;20.95;8.43;;;;;;;16.38;33.42;94213.06;5033927;28;20025;-65
2022/03/30 00:07:22;;;;;;;29.35;8.13;;;;;;;16.38;33.94;94221.09;5033897;28;20025;-65
2022/03/30 00:09:48;;;;;;;21.38;8.57;;;;;;;16.67;33.88;94267.09;5034089;28;20440;-65
2022/03/30 00:12:13;;;;;;;39.88;8.27;;;;;;;16.46;33.60;94233.47;5033520;28;20351;-65
2022/03/30 00:14:39;;;;;;;32.05;8.48;;;;;;;16.68;33.79;94268.66;5033904;28;20061;-66
2022/03/30 00:17:05;;;;;;;40.90;8.68;;;;;;;16.58;34.15;94252.06;5033795;28;20466;-65
2022/03/30 00:19:31;;;;;;;28.10;8.73;;;;;;;16.67;34.07;94254.44;5033574;28;20029;-65
2022/03/30 00:21:57;;;;;;;25.92;7.40;;;;;;;16.61;34.29;94254.00;5033331;28;20029;-65
2022/03/30 00:24:23;;;;;;;26.10;8.25;;;;;;;16.64;34.12;94255.19;5033970;28;20470;-65
2022/03/30 00:26:49;;;;;;;31.85;8.27;;;;;;;16.49;34.23;94218.56;5033632;28;20021;-65
2022/03/30 00:29:14;;;;;;;30.33;8.10;;;;;;;16.61;34.05;94235.22;5033369;28;20029;-65
2022/03/30 00:31:40;;;;;;;27.98;8.10;;;;;;;16.68;34.03;94236.44;5032972;28;20060;-65
2022/03/30 00:34:05;;;;;;;31.88;8.43;;;;;;;16.53;33.92;94206.75;5033625;28;20621;-64
2022/03/30 00:36:30;;;;;;;35.53;7.97;;;;;;;16.63;34.22;94222.22;5033512;28;20022;-67
2022/03/30 00:38:56;;;;;;;33.75;9.30;;;;;;;16.73;34.38;94234.22;5033449;28;20574;-64
2022/03/30 00:41:21;;;;;;;32.42;8.63;;;;;;;16.68;33.88;94226.47;5033354;28;20082;-64
2022/03/30 00:43:47;;;;;;;30.90;8.55;;;;;;;16.57;34.27;94207.53;5033045;28;20036;-64
2022/03/30 00:46:13;;;;;;;42.25;9.57;;;;;;;16.76;34.19;94244.25;5033344;28;20026;-65
2022/03/30 00:48:40;;;;;;;35.67;8.77;;;;;;;16.68;34.23;94218.41;5033249;28;20536;-65
2022/03/30 00:51:05;;;;;;;30.17;8.57;;;;;;;16.68;34.40;94210.34;5033099;28;20032;-65
2022/03/30 00:53:31;;;;;;;30.05;8.63;;;;;;;16.65;34.53;94203.03;5033030;28;20026;-65
2022/03/30 00:55:57;;;;;;;24.83;7.75;;;;;;;16.81;34.29;94224.34;5032980;28;20025;-65
2022/03/30 00:58:23;;;;;;;30.63;8.63;;;;;;;16.80;34.29;94220.91;5033077;28;20091;-65
2022/03/30 01:00:49;;;;;;;35.60;8.70;;;;;;;16.33;34.31;94151.66;5032681;28;20650;-64
2022/03/30 01:03:15;;;;;;;28.67;7.82;;;;;;;16.47;34.43;94165.22;5015293;28;20057;-64
2022/03/30 01:05:40;;;;;;;29.35;8.80;;;;;;;16.69;34.49;94200.41;5032780;28;20122;-64
2022/03/30 01:08:05;;;;;;;30.15;8.45;;;;;;;16.73;34.46;94212.75;5032848;28;20055;-65
2022/03/30 01:10:31;;;;;;;31.05;8.68;;;;;;;16.62;34.50;94188.41;5032589;28;20035;-65
2022/03/30 01:12:57;;;;;;;42.30;8.73;;;;;;;16.83;34.59;94217.47;5032651;28;20383;-65
2022/03/30 01:15:23;;;;;;;31.85;7.80;;;;;;;16.62;34.56;94184.97;5015047;28;20532;-66
2022/03/30 01:17:49;;;;;;;30.27;8.63;;;;;;;16.42;34.57;94154.03;5032704;28;20022;-66
2022/03/30 01:20:18;;;;;;;35.03;8.00;;;;;;;16.85;34.53;94214.44;5032135;28;20063;-66
2022/03/30 01:22:43;;;;;;;31.25;8.35;;;;;;;16.84;34.49;94213.66;5032517;28;20029;-65
2022/03/30 01:25:09;;;;;;;34.70;8.38;;;;;;;16.63;34.74;94171.19;5032526;28;20032;-66
2022/03/30 01:27:35;;;;;;;32.60;8.70;;;;;;;16.84;34.49;94205.63;5032343;28;20364;-66
2022/03/30 01:32:58;;;;;;;39.65;9.23;;;;;;;16.75;34.50;94189.00;5032345;28;20406;-65
2022/03/30 01:35:23;;;;;;;24.48;8.55;;;;;;;16.77;34.71;94183.25;5014724;28;20030;-65
2022/03/30 01:37:49;;;;;;;30.45;8.90;;;;;;;16.72;34.79;94178.22;5032417;28;20465;-65
2022/03/30 01:40:14;;;;;;;32.25;8.35;;;;;;;16.69;34.72;94179.69;5031645;28;20400;-66
2022/03/30 01:42:40;;;;;;;26.58;8.18;;;;;;;16.61;34.85;94160.03;5032140;28;20017;-66
2022/03/30 01:45:05;;;;;;;29.60;8.10;;;;;;;16.78;35.07;94185.56;5032095;28;20036;-65
2022/03/30 01:47:31;;;;;;;31.48;8.68;;;;;;;16.38;34.95;94137.91;5032048;28;20433;-65
2022/03/30 01:49:56;;;;;;;28.58;8.23;;;;;;;16.64;35.07;94188.84;5032317;28;20025;-65
2022/03/30 01:52:22;;;;;;;34.35;8.82;;;;;;;16.59;35.31;94169.59;5031419;28;20414;-65
2022/03/30 01:54:48;;;;;;;33.88;8.85;;;;;;;16.42;35.13;94140.63;5031358;28;20021;-66
2022/03/30 01:57:14;;;;;;;45.63;9.18;;;;;;;16.30;35.56;94168.47;5031868;28;20650;-65
2022/03/30 01:59:43;;;;;;;32.70;8.27;;;;;;;15.84;36.19;94126.44;5031765;28;20033;-65
2022/03/30 02:02:10;;;;;;;31.52;9.07;;;;;;;15.92;36.44;94158.72;5031175;28;20021;-65
2022/03/30 02:04:36;;;;;;;29.98;8.20;;;;;;;15.23;37.16;94124.72;5031673;28;20029;-65
2022/03/30 02:07:02;;;;;;;37.88;8.23;;;;;;;16.05;36.17;94165.44;5013961;28;20029;-65
2022/03/30 02:09:28;;;;;;;35.03;8.65;;;;;;;16.15;36.47;94164.03;5044665;23;20033;-67
2022/03/30 02:11:54;;;;;;;23.98;7.85;;;;;;;16.29;36.16;94153.50;5013617;28;20080;-67
2022/03/30 02:14:20;;;;;;;29.65;8.43;;;;;;;16.23;36.02;94125.44;5031571;28;20087;-67
2022/03/30 02:16:46;;;;;;;30.30;8.60;;;;;;;16.37;36.20;94147.84;5013759;28;20425;-67
2022/03/30 02:19:11;;;;;;;32.55;8.48;;;;;;;16.42;35.63;94138.69;5031551;28;20025;-67
2022/03/30 02:21:37;;;;;;;35.50;7.93;;;;;;;16.36;36.05;94119.47;5013322;28;20062;-67
2022/03/30 02:24:02;;;;;;;31.35;9.63;;;;;;;16.36;35.83;94097.22;5031586;28;20492;-67
2022/03/30 02:26:30;;;;;;;35.17;8.88;;;;;;;16.51;35.69;94120.41;5013342;28;20056;-67
2022/03/30 02:28:56;;;;;;;27.63;7.95;;;;;;;16.48;35.67;94106.94;5031395;28;20028;-67
2022/03/30 02:31:22;;;;;;;29.83;8.13;;;;;;;16.61;35.92;94114.38;5030717;28;20108;-67
2022/03/30 02:33:48;;;;;;;31.08;8.20;;;;;;;16.61;35.67;94117.06;5013675;28;20021;-68
2022/03/30 02:36:14;;;;;;;23.55;8.20;;;;;;;16.37;35.82;94091.47;5013611;28;20033;-67
2022/03/30 02:38:40;;;;;;;31.35;9.10;;;;;;;16.47;35.72;94094.66;5031073;28;20105;-69
2022/03/30 02:41:06;;;;;;;30.35;8.43;;;;;;;16.49;36.17;94108.50;5011941;28;20050;-67
2022/03/30 02:43:33;;;;;;;32.35;8.70;;;;;;;16.50;36.20;94102.75;5030659;28;20434;-67
2022/03/30 02:45:58;;;;;;;35.05;8.73;;;;;;;16.53;35.81;94101.25;5031255;28;20056;-66
2022/03/30 02:48:28;;;;;;;26.13;7.78;;;;;;;16.41;35.84;94078.13;5013448;28;20029;-67
2022/03/30 02:50:56;;;;;;;37.00;7.97;;;;;;;16.16;35.82;94055.59;5012941;28;20065;-67
2022/03/30 02:53:22;;;;;;;40.30;8.68;;;;;;;16.46;35.97;94091.22;5031084;28;20104;-67
2022/03/30 02:55:48;;;;;;;34.22;8.52;;;;;;;16.26;35.89;94060.31;5031129;28;20109;-67
2022/03/30 02:58:14;;;;;;;26.55;8.88;;;;;;;16.46;35.79;94083.16;5031021;28;20037;-67
2022/03/30 03:00:41;;;;;;;28.48;8.90;;;;;;;16.46;36.02;94077.03;5030567;28;20022;-67
2022/03/30 03:03:10;;;;;;;37.15;8.95;;;;;;;16.46;36.12;94074.34;5013355;28;20074;-67
2022/03/30 03:05:37;;;;;;;42.45;8.85;;;;;;;16.17;35.80;94036.44;5032748;28;20029;-68
2022/03/30 03:08:04;;;;;;;27.67;8.60;;;;;;;16.29;36.23;94043.47;5035672;28;20021;-68
2022/03/30 03:10:32;;;;;;;30.30;8.68;;;;;;;15.78;36.66;94034.06;5034513;28;20037;-66
2022/03/30 03:12:57;;;;;;;29.15;9.90;;;;;;;15.51;37.67;94070.03;5034771;28;20030;-67
2022/03/30 03:15:23;;;;;;;27.67;8.98;;;;;;;15.79;37.18;94056.28;5035121;28;20026;-66
2022/03/30 03:17:50;;;;;;;28.67;8.15;;;;;;;16.05;36.79;94080.38;5034977;28;20028;-67
2022/03/30 03:20:15;;;;;;;41.92;8.10;;;;;;;15.85;36.97;94034.13;5034469;28;20041;-66
2022/03/30 03:22:41;;;;;;;36.72;8.50;;;;;;;15.90;36.85;94033.03;5034661;28;20029;-67
2022/03/30 03:25:08;;;;;;;37.75;9.10;;;;;;;16.08;36.31;94060.09;5017086;28;20078;-67
2022/03/30 03:27:34;;;;;;;32.05;7.90;;;;;;;15.96;36.12;94026.22;5034716;28;20026;-67
2022/03/30 03:30:00;;;;;;;45.35;9.43;;;;;;;16.09;36.00;94038.28;5016834;28;20033;-67
2022/03/30 03:32:26;;;;;;;35.80;8.50;;;;;;;16.02;36.05;94011.38;5016776;28;20348;-67
2022/03/30 03:34:51;;;;;;;41.35;9.18;;;;;;;16.20;35.80;94027.66;5034671;28;20109;-67
2022/03/30 03:37:17;;;;;;;32.58;8.18;;;;;;;16.08;35.95;94006.47;5016869;28;20052;-67
2022/03/30 03:39:42;;;;;;;34.80;9.25;;;;;;;16.31;35.81;94038.50;5034581;28;20080;-67
2022/03/30 03:42:08;;;;;;;38.28;8.68;;;;;;;16.24;35.54;94025.78;5034042;28;20500;-67
2022/03/30 03:44:34;;;;;;;31.73;8.20;;;;;;;16.01;35.60;93985.66;5034420;28;20021;-67
2022/03/30 03:46:59;;;;;;;34.33;8.63;;;;;;;16.32;35.79;94018.59;5034554;28;20600;-67
2022/03/30 03:49:25;;;;;;;45.85;8.88;;;;;;;16.26;35.67;93996.69;5034035;28;20017;-67
2022/03/30 03:51:50;;;;;;;30.73;7.90;;;;;;;16.34;35.19;94009.03;5016015;28;20017;-67
2022/03/30 03:54:16;;;;;;;37.60;8.38;;;;;;;16.41;35.55;94002.19;5034071;28;20025;-67
2022/03/30 03:56:41;;;;;;;40.05;9.43;;;;;;;16.33;35.49;93998.69;5034222;28;20036;-67
2022/03/30 03:59:07;;;;;;;41.25;8.55;;;;;;;16.36;35.33;93997.94;5034227;28;20033;-68
2022/03/30 04:01:33;;;;;;;33.20;7.88;;;;;;;16.40;35.40;94006.78;5015625;28;20074;-68
2022/03/30 04:03:58;;;;;;;38.95;8.65;;;;;;;16.32;35.41;93995.19;5033982;28;20116;-67
2022/03/30 04:06:25;;;;;;;36.03;8.90;;;;;;;16.27;35.71;94008.19;5034176;28;20061;-67
2022/03/30 04:08:50;;;;;;;31.40;8.65;;;;;;;15.99;35.81;93971.88;5016045;28;20564;-67
2022/03/30 04:11:15;;;;;;;35.13;9.05;;;;;;;15.97;35.92;93987.56;5015233;28;20037;-67
2022/03/30 04:13:41;;;;;;;33.95;8.50;;;;;;;15.77;36.10;93964.72;5033592;28;20037;-67
2022/03/30 04:16:06;;;;;;;44.78;9.07;;;;;;;15.85;36.10;93987.78;5015928;28;20132;-68
2022/03/30 04:18:32;;;;;;;44.13;8.82;;;;;;;15.85;36.29;93993.16;5015347;28;20113;-67
2022/03/30 04:20:57;;;;;;;38.45;8.63;;;;;;;15.75;36.77;93978.47;5033277;28;20013;-67
2022/03/30 04:23:22;;;;;;;33.10;7.72;;;;;;;15.64;36.41;93966.06;5015784;28;20060;-67
2022/03/30 04:25:48;;;;;;;30.92;8.60;;;;;;;15.77;36.81;93986.16;5034028;28;20017;-67
2022/03/30 04:28:17;;;;;;;34.10;9.02;;;;;;;15.65;36.36;93975.66;5033618;28;20083;-67
2022/03/30 04:30:43;;;;;;;23.38;8.13;;;;;;;15.70;37.07;93981.47;5015437;28;20040;-67
2022/03/30 04:33:12;;;;;;;49.53;11.00;;;;;;;15.71;37.18;93987.59;5033511;28;20247;-67
2022/03/30 04:35:38;;;;;;;40.03;9.93;;;;;;;15.57;37.28;93970.19;5033368;28;20481;-68
2022/03/30 04:38:05;;;;;;;41.05;9.23;;;;;;;15.64;37.34;93976.81;5015786;28;20021;-67
2022/03/30 04:40:31;;;;;;;39.83;9.43;;;;;;;15.75;37.09;93994.56;5032880;28;20030;-68
2022/03/30 04:42:57;;;;;;;37.70;8.95;;;;;;;15.73;36.77;93996.84;5015364;28;20025;-68
2022/03/30 04:45:22;;;;;;;32.72;7.63;;;;;;;15.40;37.14;93977.97;5015564;28;20026;-67
2022/03/30 04:47:49;;;;;;;28.75;8.60;;;;;;;15.58;37.23;93989.72;5015233;28;20041;-67
2022/03/30 04:50:15;;;;;;;30.02;9.75;;;;;;;15.42;37.46;93983.75;5032387;28;20034;-67
2022/03/30 04:52:42;;;;;;;38.28;9.00;;;;;;;15.52;37.24;93983.13;5015167;28;20033;-71
2022/03/30 04:55:09;;;;;;;41.13;8.77;;;;;;;15.54;37.29;93970.91;5015371;28;20516;-66
2022/03/30 04:57:35;;;;;;;32.85;9.00;;;;;;;15.57;37.16;93970.19;5014933;28;20030;-66
2022/03/30 05:00:00;;;;;;;34.55;9.00;;;;;;;15.77;37.10;93994.22;5032634;28;20033;-67
2022/03/30 05:02:26;;;;;;;40.55;9.68;;;;;;;15.87;36.82;93996.25;5032607;28;20044;-66
2022/03/30 05:04:52;;;;;;;35.30;8.45;;;;;;;15.75;36.68;93981.16;5033274;28;20033;-65
2022/03/30 05:07:18;;;;;;;34.08;9.38;;;;;;;15.10;37.88;93981.41;5032713;28;20529;-65
2022/03/30 05:09:43;;;;;;;35.97;8.60;;;;;;;15.27;37.60;93991.59;5014785;28;20091;-72
2022/03/30 05:12:09;;;;;;;39.95;8.23;;;;;;;15.68;37.57;93996.38;5032485;28;20129;-70
2022/03/30 05:14:34;;;;;;;42.85;9.65;;;;;;;15.56;37.06;93965.19;5032193;28;20033;-68
2022/03/30 05:17:00;;;;;;;29.73;8.73;;;;;;;15.68;37.01;93962.31;5032437;28;20032;-70
2022/03/30 05:19:25;;;;;;;30.55;8.88;;;;;;;15.86;36.23;93967.88;5014601;28;20025;-70
2022/03/30 05:21:51;;;;;;;36.92;10.65;;;;;;;16.11;36.55;93992.28;5031771;28;20032;-67
2022/03/30 05:24:16;;;;;;;48.20;11.23;;;;;;;16.21;36.42;93985.50;5014676;28;20021;-66
2022/03/30 05:26:42;;;;;;;40.35;9.48;;;;;;;16.19;36.36;93980.50;5032397;28;20463;-66
2022/03/30 05:29:07;;;;;;;46.97;9.43;;;;;;;16.10;36.01;93955.88;5031347;28;20060;-64
2022/03/30 05:31:33;;;;;;;46.75;9.68;;;;;;;16.24;36.19;93980.19;5013954;28;20029;-65
2022/03/30 05:33:58;;;;;;;38.53;10.40;;;;;;;16.21;35.72;93982.81;5032144;28;20029;-67
2022/03/30 05:36:24;;;;;;;27.35;8.50;;;;;;;16.03;37.42;93974.59;5032448;28;20026;-65
2022/03/30 05:38:50;;;;;;;22.92;8.63;;;;;;;16.11;36.78;93978.88;5032105;28;20402;-65
2022/03/30 05:41:17;;;;;;;30.25;9.07;;;;;;;16.10;36.95;93978.13;5031495;28;20029;-65
2022/03/30 05:43:43;;;;;;;40.10;10.32;;;;;;;16.23;36.44;93999.34;5013855;28;20025;-65
2022/03/30 05:46:09;;;;;;;38.42;9.10;;;;;;;15.73;36.98;93980.75;5031186;28;20029;-65
2022/03/30 05:48:34;;;;;;;34.22;8.90;;;;;;;16.28;36.29;94004.38;5014068;28;20017;-66
2022/03/30 05:51:00;;;;;;;38.17;9.13;;;;;;;15.00;38.39;93984.69;5013761;28;20083;-64
2022/03/30 05:53:25;;;;;;;27.83;8.85;;;;;;;15.70;37.22;93965.38;5032212;28;20021;-65
2022/03/30 05:55:51;;;;;;;35.83;9.30;;;;;;;16.17;36.44;93973.97;5013630;28;20030;-66
2022/03/30 05:58:17;;;;;;;38.83;9.15;;;;;;;16.55;35.73;93995.06;5013905;28;20018;-65
2022/03/30 06:00:43;;;;;;;39.28;9.23;;;;;;;16.55;35.41;93973.59;5030567;28;20037;-67
2022/03/30 06:03:10;;;;;;;34.60;9.27;;;;;;;16.75;35.29;93962.66;5031529;28;20648;-66
2022/03/30 06:05:36;;;;;;;41.40;8.88;;;;;;;17.10;34.80;93997.88;5031507;28;20022;-67
2022/03/30 06:08:01;;;;;;;40.00;9.77;;;;;;;17.08;34.54;93959.84;5013926;28;20037;-68
2022/03/30 06:10:27;;;;;;;27.35;8.85;;;;;;;17.38;34.53;93999.19;5013131;28;20029;-68
2022/03/30 06:12:55;;;;;;;44.95;9.35;;;;;;;17.42;34.03;93983.88;5013739;28;20036;-67
2022/03/30 06:15:20;;;;;;;32.05;9.68;;;;;;;17.36;33.67;93961.94;5030728;28;20029;-68
2022/03/30 06:17:48;;;;;;;31.40;9.32;;;;;;;17.47;33.40;93962.00;5031474;28;20025;-66
2022/03/30 06:20:13;;;;;;;41.17;9.18;;;;;;;17.18;33.18;93968.34;5031225;28;20094;-67
2022/03/30 06:22:42;;;;;;;33.83;8.82;;;;;;;15.89;35.65;93993.19;5013766;28;20026;-65
2022/03/30 06:25:09;;;;;;;31.30;9.27;;;;;;;15.18;36.62;93971.56;5031641;28;20060;-66
2022/03/30 06:27:39;;;;;;;24.05;8.55;;;;;;;15.03;36.65;93986.63;5013905;28;20029;-67
2022/03/30 06:30:06;;;;;;;31.00;8.93;;;;;;;15.03;37.40;94008.84;5012009;28;20032;-65
2022/03/30 06:32:35;;;;;;;37.13;9.88;;;;;;;15.92;36.04;93987.09;4993814;28;20025;-66
2022/03/30 06:35:05;;;;;;;33.50;8.63;;;;;;;16.32;34.76;93975.66;4994123;28;20022;-65
2022/03/30 06:37:30;;;;;;;36.85;9.07;;;;;;;16.39;34.47;93978.41;5011534;28;20390;-67
2022/03/30 06:39:56;;;;;;;26.60;8.75;;;;;;;16.22;34.65;93987.81;5010989;28;20032;-66
2022/03/30 06:42:21;;;;;;;41.22;10.35;;;;;;;15.73;35.30;93959.31;5011053;28;20037;-65
2022/03/30 06:44:47;;;;;;;42.00;8.82;;;;;;;15.97;35.13;93982.19;4993330;28;20018;-66
2022/03/30 06:47:12;;;;;;;39.30;8.60;;;;;;;16.05;35.67;93997.22;5029388;28;20473;-63
2022/03/30 06:49:38;;;;;;;27.15;8.73;;;;;;;16.55;35.54;93994.28;5031116;28;20056;-63
2022/03/30 06:52:06;;;;;;;33.50;8.90;;;;;;;16.28;35.44;93989.03;5030608;28;20498;-68
2022/03/30 06:54:34;;;;;;;52.55;10.07;;;;;;;16.10;34.97;93978.13;5031062;28;20053;-66
2022/03/30 06:57:00;;;;;;;43.80;9.40;;;;;;;15.31;37.22;93999.69;5030910;28;20691;-66
2022/03/30 06:59:26;;;;;;;35.70;8.23;;;;;;;15.54;37.08;94003.06;5031089;28;20083;-67
2022/03/30 07:01:53;;;;;;;38.67;8.93;;;;;;;15.72;36.40;93947.03;5011766;28;20393;-66
2022/03/30 07:04:18;;;;;;;40.63;8.70;;;;;;;16.54;35.67;93998.88;5030827;28;20056;-66
2022/03/30 07:12:12;;;;;;;38.40;8.02;;;;;;;14.49;40.53;93999.16;5030963;28;20076;-68
2022/03/30 07:14:37;;;;;;;30.98;7.90;;;;;;;14.70;40.52;94000.66;5030903;28;20041;-66
2022/03/30 07:17:03;;;;;;;40.75;7.97;;;;;;;15.24;39.29;93996.91;5030150;28;20030;-68
2022/03/30 07:19:29;;;;;;;39.17;7.43;;;;;;;14.62;40.01;93964.97;5031116;28;20048;-68
2022/03/30 07:21:54;;;;;;;36.10;8.07;;;;;;;15.48;38.60;93983.09;5030492;28;20024;-67
2022/03/30 07:24:19;;;;;;;39.30;8.30;;;;;;;14.26;39.97;93904.72;5030551;28;20029;-67
2022/03/30 07:26:45;;;;;;;34.70;7.40;;;;;;;14.73;40.44;93971.25;5012903;28;20079;-66
2022/03/30 07:29:10;;;;;;;33.75;7.85;;;;;;;15.39;39.58;93995.19;5012958;28;20049;-65
2022/03/30 07:31:36;;;;;;;32.75;8.77;;;;;;;15.09;39.67;93959.19;5029043;28;20123;-65
2022/03/30 07:34:01;;;;;;;35.08;7.88;;;;;;;14.54;40.54;93976.69;5030475;28;20529;-68
2022/03/30 07:36:26;;;;;;;34.25;9.55;;;;;;;14.87;40.26;93973.41;5030699;28;20465;-69
2022/03/30 07:38:52;;;;;;;35.13;8.32;;;;;;;14.87;40.66;93983.34;5030555;28;20636;-67
2022/03/30 07:41:20;;;;;;;41.90;8.63;;;;;;;15.81;38.93;93971.66;5012192;28;20021;-69
2022/03/30 07:43:46;;;;;;;43.65;8.18;;;;;;;15.75;38.59;93957.03;5030571;28;20073;-67
2022/03/30 07:46:13;;;;;;;37.78;7.93;;;;;;;15.70;38.83;93976.09;5029868;28;20498;-68
2022/03/30 07:48:39;;;;;;;34.42;8.30;;;;;;;15.13;40.29;93969.97;5030582;28;20053;-69
2022/03/30 07:51:04;;;;;;;38.05;8.15;;;;;;;14.95;40.53;93964.34;5012381;28;20071;-69
2022/03/30 07:53:30;;;;;;;43.92;8.75;;;;;;;15.21;40.01;93965.50;5033399;28;20518;-70
2022/03/30 07:55:57;;;;;;;36.95;8.38;;;;;;;15.87;39.13;93982.84;5016507;28;20107;-69
2022/03/30 07:58:22;;;;;;;32.38;7.53;;;;;;;15.52;39.34;93970.50;5016458;28;20021;-70
2022/03/30 08:00:48;;;;;;;37.25;7.78;;;;;;;15.11;40.35;93961.53;5032876;28;20339;-70
2022/03/30 08:03:13;;;;;;;33.55;8.45;;;;;;;16.07;39.07;93951.25;5034061;28;20042;-69
2022/03/30 08:05:39;;;;;;;38.60;8.82;;;;;;;16.30;38.25;93984.06;5034198;28;20025;-69
2022/03/30 08:08:07;;;;;;;38.45;8.27;;;;;;;16.07;38.55;93956.59;5033957;28;20080;-71
2022/03/30 08:10:35;;;;;;;41.08;8.15;;;;;;;16.22;38.62;93982.44;5033279;28;20041;-70
2022/03/30 08:13:01;;;;;;;27.35;8.30;;;;;;;16.28;38.24;93956.09;5033906;28;20022;-70
2022/03/30 08:15:27;;;;;;;33.83;8.52;;;;;;;16.77;36.83;93936.19;5033946;28;20033;-70
2022/03/30 08:17:54;;;;;;;30.05;7.97;;;;;;;16.04;38.66;93960.81;5015290;28;20078;-69
2022/03/30 08:23:04;;;;;;;27.70;7.70;;;;;;;17.04;37.29;93969.78;5034126;28;20068;-69
2022/03/30 08:25:30;;;;;;;34.42;7.80;;;;;;;16.72;37.48;93936.53;5033742;28;20022;-69
2022/03/30 08:27:56;;;;;;;31.80;8.25;;;;;;;17.18;37.24;93957.59;5016228;28;20044;-69
2022/03/30 08:30:21;;;;;;;37.85;7.85;;;;;;;18.14;35.11;93955.38;5033130;28;20036;-69
2022/03/30 08:32:47;;;;;;;40.92;8.60;;;;;;;17.50;36.33;93920.13;5032772;28;20029;-69
2022/03/30 08:35:13;;;;;;;43.05;8.82;;;;;;;17.30;36.74;93943.84;5033563;28;20401;-70
2022/03/30 08:37:39;;;;;;;37.85;7.38;;;;;;;16.55;38.40;93980.88;5033422;28;20032;-70
2022/03/30 08:40:15;;;;;;;42.42;8.15;;;;;;;17.07;37.73;93976.34;5015480;28;20025;-70
2022/03/30 08:42:41;;;;;;;43.75;7.72;;;;;;;17.64;36.65;93974.75;5033343;28;20026;-70
2022/03/30 08:45:08;;;;;;;37.58;8.10;;;;;;;18.43;35.08;93975.84;5033332;28;20025;-69
2022/03/30 08:47:34;;;;;;;45.25;9.07;;;;;;;16.77;38.12;93965.75;5032416;28;20029;-70
2022/03/30 08:50:00;;;;;;;33.33;9.15;;;;;;;15.82;40.22;93978.56;5015481;28;20061;-70
2022/03/30 08:52:26;;;;;;;40.03;7.60;;;;;;;16.55;38.62;93937.91;5033181;28;20607;-70
2022/03/30 08:54:51;;;;;;;31.17;7.80;;;;;;;15.86;39.68;93943.72;5033281;28;20022;-70
2022/03/30 08:57:18;;;;;;;34.15;7.65;;;;;;;15.55;41.10;93985.06;5015566;28;20037;-69
2022/03/30 08:59:57;;;;;;;35.05;7.63;;;;;;;15.32;40.82;93939.63;5033042;28;20048;-69
2022/03/30 09:02:22;;;;;;;35.55;6.72;;;;;;;16.09;39.34;93906.84;5013633;28;20037;-69
2022/03/30 09:05:14;;;;;;;41.13;8.60;;;;;;;15.82;40.71;93961.72;5032800;28;20040;-68
2022/03/30 09:07:41;;;;;;;27.58;7.85;;;;;;;15.52;41.54;93983.13;5033302;28;20386;-69
2022/03/30 09:10:18;;;;;;;35.83;7.35;;;;;;;14.67;43.58;93958.53;5032468;28;20691;-69
2022/03/30 09:12:46;;;;;;;34.45;8.38;;;;;;;15.22;42.46;93965.13;5032813;28;20057;-70
2022/03/30 09:15:13;;;;;;;31.40;7.05;;;;;;;15.31;42.38;93959.50;5032892;28;20026;-70
2022/03/30 09:17:39;;;;;;;27.65;7.63;;;;;;;15.25;42.62;93952.91;5032760;28;20038;-75
2022/03/30 09:20:11;;;;;;;34.97;7.53;;;;;;;14.59;43.68;93887.28;5014688;28;20120;-69
2022/03/30 09:22:42;;;;;;;35.00;8.57;;;;;;;14.59;43.33;93884.63;5032510;28;20490;-68
2022/03/30 09:25:08;;;;;;;34.90;7.30;;;;;;;15.56;42.97;93975.91;5032585;28;20022;-68
2022/03/30 09:27:39;;;;;;;27.73;7.82;;;;;;;15.21;43.84;93973.53;5032176;28;20026;-69
2022/03/30 09:30:06;;;;;;;33.90;7.72;;;;;;;15.10;44.84;93954.63;5032231;28;20508;-69
2022/03/30 09:32:32;;;;;;;30.73;9.02;;;;;;;14.15;45.60;93869.00;5032490;28;20849;-70
2022/03/30 09:34:58;;;;;;;24.63;8.07;;;;;;;15.14;44.54;93927.88;5032645;28;20151;-69
2022/03/30 09:37:23;;;;;;;35.88;7.38;;;;;;;14.70;45.13;93877.53;5032586;28;20509;-70
2022/03/30 09:39:50;;;;;;;31.88;8.45;;;;;;;14.78;46.57;93964.84;5032332;28;20025;-69
2022/03/30 09:42:18;;;;;;;32.70;8.27;;;;;;;14.46;47.67;93938.31;5031664;28;20032;-69
2022/03/30 09:44:49;;;;;;;30.27;8.40;;;;;;;14.45;47.74;93915.34;5014426;28;20033;-69
2022/03/30 09:47:16;;;;;;;25.08;7.88;;;;;;;13.59;49.87;93867.63;5032161;28;20128;-69
2022/03/30 09:49:47;;;;;;;30.45;8.18;;;;;;;13.61;50.40;93950.09;5031797;28;20064;-69
2022/03/30 09:52:17;;;;;;;31.40;8.68;;;;;;;14.10;50.99;93968.25;5031619;28;20476;-69
2022/03/30 09:54:54;;;;;;;26.25;7.32;;;;;;;14.88;48.82;93956.19;5014707;28;20037;-68
2022/03/30 09:57:19;;;;;;;39.33;8.27;;;;;;;16.15;46.74;93958.25;5032006;28;20021;-69
2022/03/30 10:00:12;;;;;;;31.13;8.23;;;;;;;14.99;49.14;93954.44;5031983;28;20032;-69
2022/03/30 10:02:43;;;;;;;37.50;8.85;;;;;;;16.08;47.21;93934.03;5031852;28;20033;-69
2022/03/30 10:05:11;;;;;;;31.63;8.02;;;;;;;16.99;44.02;93954.00;5014373;28;20036;-70
2022/03/30 10:07:37;;;;;;;28.15;7.82;;;;;;;17.30;43.29;93957.28;5031767;28;20112;-71
2022/03/30 10:10:04;;;;;;;29.20;8.55;;;;;;;16.36;44.77;93930.84;5013302;28;20033;-70
2022/03/30 10:12:30;;;;;;;38.85;8.02;;;;;;;14.63;48.84;93904.19;5031494;28;20482;-69
2022/03/30 10:14:56;;;;;;;32.33;7.60;;;;;;;14.80;49.80;93933.91;5030927;28;20147;-70
2022/03/30 10:17:24;;;;;;;27.60;8.63;;;;;;;15.45;47.96;93940.16;5031523;28;20022;-68
2022/03/30 10:19:52;;;;;;;25.33;7.90;;;;;;;15.75;47.75;93924.09;5013040;28;20417;-69
2022/03/30 10:22:17;;;;;;;23.80;7.95;;;;;;;14.86;48.04;93870.13;5031161;28;20105;-69
2022/03/30 10:24:56;;;;;;;28.33;6.95;;;;;;;14.03;50.15;93881.44;5014106;28;20494;-71
2022/03/30 10:27:43;;;;;;;26.42;7.43;;;;;;;14.61;50.67;93925.97;5031596;28;20470;-68
2022/03/30 10:30:11;;;;;;;31.77;7.53;;;;;;;14.17;51.83;93920.22;5031070;28;20736;-69
2022/03/30 10:32:38;;;;;;;29.48;7.07;;;;;;;14.24;50.96;93923.03;5031125;28;20030;-67
2022/03/30 10:35:09;;;;;;;28.50;7.90;;;;;;;12.99;51.72;93777.19;5030473;28;20045;-69
2022/03/30 10:37:44;;;;;;;37.85;7.25;;;;;;;14.85;50.52;93918.69;5031372;28;20056;-69
2022/03/30 10:40:10;;;;;;;27.85;7.30;;;;;;;15.32;48.10;93918.19;5030990;28;20068;-69
2022/03/30 10:42:52;;;;;;;23.52;7.32;;;;;;;15.07;49.57;93921.28;5031143;28;20769;-69
2022/03/30 10:45:30;;;;;;;21.23;6.25;;;;;;;13.70;52.36;93923.94;5031254;28;20028;-68
2022/03/30 10:48:07;;;;;;;28.85;7.50;;;;;;;15.12;49.32;93847.13;5031032;28;20026;-68
2022/03/30 10:51:08;;;;;;;28.23;6.82;;;;;;;14.70;50.42;93904.31;5029867;28;20057;-69
2022/03/30 10:53:34;;;;;;;30.05;7.72;;;;;;;14.07;51.57;93862.75;5030952;28;20026;-68
2022/03/30 10:56:08;;;;;;;23.67;6.97;;;;;;;14.66;51.88;93901.56;5030849;28;20512;-69
2022/03/30 10:58:59;;;;;;;36.05;8.63;;;;;;;14.45;51.66;93893.97;5031120;28;20036;-68
2022/03/30 11:01:30;;;;;;;29.38;7.45;;;;;;;13.84;52.62;93838.69;5030306;28;20534;-69
2022/03/30 11:04:04;;;;;;;34.78;7.18;;;;;;;14.32;51.40;93903.28;5031438;28;20037;-69
2022/03/30 11:06:33;;;;;;;33.05;7.32;;;;;;;13.73;49.80;93699.56;5030222;28;20033;-70
2022/03/30 11:09:03;;;;;;;32.42;7.78;;;;;;;14.42;49.03;93707.41;5012935;28;20108;-68
2022/03/30 11:11:39;;;;;;;31.67;7.60;;;;;;;14.33;49.79;93760.41;5030285;28;20112;-69
2022/03/30 11:14:28;;;;;;;29.85;7.32;;;;;;;13.96;53.39;93893.88;5030943;28;20545;-68
2022/03/30 11:16:56;;;;;;;30.55;7.72;;;;;;;14.30;51.74;93828.00;5030824;28;20025;-69
2022/03/30 11:19:29;;;;;;;38.05;8.13;;;;;;;16.48;47.80;93898.38;5030695;28;20034;-69
2022/03/30 11:22:11;;;;;;;20.90;6.85;;;;;;;18.02;45.53;93877.72;5028988;28;20601;-69
2022/03/30 11:24:38;;;;;;;31.55;7.50;;;;;;;16.09;46.50;93755.84;5030515;28;20021;-69
2022/03/30 11:27:03;;;;;;;25.92;7.22;;;;;;;15.41;49.52;93881.19;5033102;28;20473;-69
2022/03/30 11:29:42;;;;;;;21.48;6.90;;;;;;;15.24;49.79;93881.72;5034830;28;20044;-69
2022/03/30 11:32:22;;;;;;;21.35;7.80;;;;;;;15.28;49.66;93875.25;5034351;28;20492;-69
2022/03/30 11:34:52;;;;;;;27.45;6.90;;;;;;;15.11;48.10;93733.88;5016286;28;20040;-69